sensor_id;sensor_type;location;lat;lon;timestamp;P1;durP1;ratioP1;P2;durP2;ratioP2
15883;SDS011;8040;50.254;10.960;2023-04-27T00:00:42;382.40;;;93.33;;
15883;SDS011;8040;50.254;10.960;2023-04-27T00:03:08;381.98;;;92.03;;
15883;SDS011;8040;50.254;10.960;2023-04-27T00:05:34;400.40;;;112.68;;
15883;SDS011;8040;50.254;10.960;2023-04-27T00:08:01;382.40;;;94.90;;
15883;SDS011;8040;50.254;10.960;2023-04-27T00:10:27;384.23;;;92.47;;
15883;SDS011;8040;50.254;10.960;2023-04-27T00:12:52;381.83;;;93.20;;
15883;SDS011;8040;50.254;10.960;2023-04-27T00:15:18;380.90;;;91.82;;
15883;SDS011;8040;50.254;10.960;2023-04-27T00:17:43;390.90;;;103.07;;
15883;SDS011;8040;50.254;10.960;2023-04-27T00:20:09;381.73;;;92.50;;
15883;SDS011;8040;50.254;10.960;2023-04-27T00:22:36;397.23;;;108.03;;
15883;SDS011;8040;50.254;10.960;2023-04-27T00:25:03;380.38;;;89.55;;
15883;SDS011;8040;50.254;10.960;2023-04-27T00:27:29;381.15;;;89.72;;
15883;SDS011;8040;50.254;10.960;2023-04-27T00:29:54;397.20;;;110.83;;
15883;SDS011;8040;50.254;10.960;2023-04-27T00:32:19;380.67;;;89.50;;
15883;SDS011;8040;50.254;10.960;2023-04-27T00:34:45;414.70;;;127.30;;
15883;SDS011;8040;50.254;10.960;2023-04-27T00:37:10;381.37;;;92.23;;
15883;SDS011;8040;50.254;10.960;2023-04-27T00:39:36;383.08;;;95.88;;
15883;SDS011;8040;50.254;10.960;2023-04-27T00:42:01;393.08;;;104.75;;
15883;SDS011;8040;50.254;10.960;2023-04-27T00:44:27;390.90;;;102.33;;
15883;SDS011;8040;50.254;10.960;2023-04-27T00:46:52;390.33;;;101.17;;
15883;SDS011;8040;50.254;10.960;2023-04-27T00:49:21;382.65;;;93.32;;
15883;SDS011;8040;50.254;10.960;2023-04-27T00:51:47;383.43;;;92.43;;
15883;SDS011;8040;50.254;10.960;2023-04-27T00:54:18;387.60;;;96.30;;
15883;SDS011;8040;50.254;10.960;2023-04-27T00:56:44;380.47;;;91.40;;
15883;SDS011;8040;50.254;10.960;2023-04-27T00:59:13;391.10;;;102.80;;
15883;SDS011;8040;50.254;10.960;2023-04-27T01:01:38;384.83;;;95.93;;
15883;SDS011;8040;50.254;10.960;2023-04-27T01:04:04;383.10;;;94.97;;
15883;SDS011;8040;50.254;10.960;2023-04-27T01:06:29;381.73;;;91.63;;
15883;SDS011;8040;50.254;10.960;2023-04-27T01:08:55;381.10;;;93.47;;
15883;SDS011;8040;50.254;10.960;2023-04-27T01:11:21;382.70;;;93.78;;
15883;SDS011;8040;50.254;10.960;2023-04-27T01:13:47;386.20;;;97.95;;
15883;SDS011;8040;50.254;10.960;2023-04-27T01:16:13;381.33;;;92.78;;
15883;SDS011;8040;50.254;10.960;2023-04-27T01:18:41;410.40;;;120.93;;
15883;SDS011;8040;50.254;10.960;2023-04-27T01:21:06;380.02;;;90.75;;
15883;SDS011;8040;50.254;10.960;2023-04-27T01:23:32;379.88;;;90.90;;
15883;SDS011;8040;50.254;10.960;2023-04-27T01:25:57;395.57;;;105.83;;
15883;SDS011;8040;50.254;10.960;2023-04-27T01:28:22;395.13;;;105.70;;
15883;SDS011;8040;50.254;10.960;2023-04-27T01:30:48;379.37;;;89.93;;
15883;SDS011;8040;50.254;10.960;2023-04-27T01:33:13;379.60;;;89.57;;
15883;SDS011;8040;50.254;10.960;2023-04-27T01:35:39;379.23;;;89.77;;
15883;SDS011;8040;50.254;10.960;2023-04-27T01:38:04;380.73;;;89.93;;
15883;SDS011;8040;50.254;10.960;2023-04-27T01:40:29;398.30;;;107.53;;
15883;SDS011;8040;50.254;10.960;2023-04-27T01:42:55;380.47;;;90.70;;
15883;SDS011;8040;50.254;10.960;2023-04-27T01:45:20;381.73;;;93.00;;
15883;SDS011;8040;50.254;10.960;2023-04-27T01:47:46;378.92;;;89.03;;
15883;SDS011;8040;50.254;10.960;2023-04-27T01:50:11;383.85;;;92.32;;
15883;SDS011;8040;50.254;10.960;2023-04-27T01:52:36;395.57;;;107.67;;
15883;SDS011;8040;50.254;10.960;2023-04-27T01:55:02;384.43;;;93.97;;
15883;SDS011;8040;50.254;10.960;2023-04-27T01:57:28;380.53;;;88.80;;
15883;SDS011;8040;50.254;10.960;2023-04-27T01:59:53;380.30;;;90.93;;
15883;SDS011;8040;50.254;10.960;2023-04-27T02:02:18;395.52;;;104.57;;
15883;SDS011;8040;50.254;10.960;2023-04-27T02:04:44;382.77;;;93.53;;
15883;SDS011;8040;50.254;10.960;2023-04-27T02:07:09;379.70;;;90.80;;
15883;SDS011;8040;50.254;10.960;2023-04-27T02:09:35;378.50;;;88.93;;
15883;SDS011;8040;50.254;10.960;2023-04-27T02:12:00;379.90;;;89.23;;
15883;SDS011;8040;50.254;10.960;2023-04-27T02:14:26;379.10;;;86.55;;
15883;SDS011;8040;50.254;10.960;2023-04-27T02:16:52;380.03;;;91.83;;
15883;SDS011;8040;50.254;10.960;2023-04-27T02:19:17;381.73;;;92.67;;
15883;SDS011;8040;50.254;10.960;2023-04-27T02:21:42;380.70;;;93.07;;
15883;SDS011;8040;50.254;10.960;2023-04-27T02:24:08;379.43;;;90.87;;
15883;SDS011;8040;50.254;10.960;2023-04-27T02:26:33;380.37;;;90.60;;
15883;SDS011;8040;50.254;10.960;2023-04-27T02:28:59;380.10;;;90.53;;
15883;SDS011;8040;50.254;10.960;2023-04-27T02:31:24;386.67;;;96.45;;
15883;SDS011;8040;50.254;10.960;2023-04-27T02:33:50;378.90;;;88.30;;
15883;SDS011;8040;50.254;10.960;2023-04-27T02:36:15;377.83;;;85.87;;
15883;SDS011;8040;50.254;10.960;2023-04-27T02:38:41;378.13;;;86.70;;
15883;SDS011;8040;50.254;10.960;2023-04-27T02:41:06;377.47;;;86.23;;
15883;SDS011;8040;50.254;10.960;2023-04-27T02:43:31;398.40;;;108.53;;
15883;SDS011;8040;50.254;10.960;2023-04-27T02:46:00;391.50;;;100.63;;
15883;SDS011;8040;50.254;10.960;2023-04-27T02:48:27;378.13;;;86.13;;
15883;SDS011;8040;50.254;10.960;2023-04-27T02:50:52;379.37;;;89.17;;
15883;SDS011;8040;50.254;10.960;2023-04-27T02:53:18;379.47;;;89.30;;
15883;SDS011;8040;50.254;10.960;2023-04-27T02:55:46;389.63;;;95.70;;
15883;SDS011;8040;50.254;10.960;2023-04-27T02:58:13;382.48;;;90.28;;
15883;SDS011;8040;50.254;10.960;2023-04-27T03:00:40;378.55;;;86.50;;
15883;SDS011;8040;50.254;10.960;2023-04-27T03:03:06;382.33;;;89.07;;
15883;SDS011;8040;50.254;10.960;2023-04-27T03:05:32;380.23;;;89.67;;
15883;SDS011;8040;50.254;10.960;2023-04-27T03:07:58;380.67;;;90.03;;
15883;SDS011;8040;50.254;10.960;2023-04-27T03:10:23;379.90;;;87.45;;
15883;SDS011;8040;50.254;10.960;2023-04-27T03:12:49;380.90;;;91.23;;
15883;SDS011;8040;50.254;10.960;2023-04-27T03:15:14;385.07;;;91.27;;
15883;SDS011;8040;50.254;10.960;2023-04-27T03:17:40;384.77;;;92.83;;
15883;SDS011;8040;50.254;10.960;2023-04-27T03:20:05;378.73;;;87.33;;
15883;SDS011;8040;50.254;10.960;2023-04-27T03:22:33;379.80;;;89.55;;
15883;SDS011;8040;50.254;10.960;2023-04-27T03:25:00;379.10;;;88.70;;
15883;SDS011;8040;50.254;10.960;2023-04-27T03:27:25;380.33;;;91.87;;
15883;SDS011;8040;50.254;10.960;2023-04-27T03:29:51;391.60;;;100.37;;
15883;SDS011;8040;50.254;10.960;2023-04-27T03:32:19;379.50;;;89.88;;
15883;SDS011;8040;50.254;10.960;2023-04-27T03:34:44;379.10;;;87.25;;
15883;SDS011;8040;50.254;10.960;2023-04-27T03:37:10;377.45;;;87.50;;
15883;SDS011;8040;50.254;10.960;2023-04-27T03:39:35;379.83;;;91.60;;
15883;SDS011;8040;50.254;10.960;2023-04-27T03:42:01;379.30;;;89.03;;
15883;SDS011;8040;50.254;10.960;2023-04-27T03:44:27;379.88;;;90.57;;
15883;SDS011;8040;50.254;10.960;2023-04-27T03:46:55;382.05;;;93.00;;
15883;SDS011;8040;50.254;10.960;2023-04-27T03:49:21;377.37;;;87.70;;
15883;SDS011;8040;50.254;10.960;2023-04-27T03:51:47;398.25;;;107.53;;
15883;SDS011;8040;50.254;10.960;2023-04-27T03:54:12;384.80;;;90.17;;
15883;SDS011;8040;50.254;10.960;2023-04-27T03:56:39;381.83;;;89.82;;
15883;SDS011;8040;50.254;10.960;2023-04-27T03:59:04;378.45;;;89.70;;
15883;SDS011;8040;50.254;10.960;2023-04-27T04:01:30;377.63;;;87.40;;
15883;SDS011;8040;50.254;10.960;2023-04-27T04:03:56;398.53;;;107.80;;
15883;SDS011;8040;50.254;10.960;2023-04-27T04:06:21;379.00;;;87.40;;
15883;SDS011;8040;50.254;10.960;2023-04-27T04:08:46;376.90;;;86.60;;
15883;SDS011;8040;50.254;10.960;2023-04-27T04:11:12;376.98;;;86.10;;
15883;SDS011;8040;50.254;10.960;2023-04-27T04:13:37;378.50;;;86.63;;
15883;SDS011;8040;50.254;10.960;2023-04-27T04:16:03;396.87;;;105.83;;
15883;SDS011;8040;50.254;10.960;2023-04-27T04:18:30;379.48;;;88.55;;
15883;SDS011;8040;50.254;10.960;2023-04-27T04:20:56;376.80;;;86.43;;
15883;SDS011;8040;50.254;10.960;2023-04-27T04:23:22;379.00;;;87.83;;
15883;SDS011;8040;50.254;10.960;2023-04-27T04:25:48;380.27;;;85.65;;
15883;SDS011;8040;50.254;10.960;2023-04-27T04:28:13;397.73;;;108.67;;
15883;SDS011;8040;50.254;10.960;2023-04-27T04:30:40;384.65;;;90.82;;
15883;SDS011;8040;50.254;10.960;2023-04-27T04:33:07;379.55;;;87.20;;
15883;SDS011;8040;50.254;10.960;2023-04-27T04:35:32;379.47;;;88.47;;
15883;SDS011;8040;50.254;10.960;2023-04-27T04:38:00;382.00;;;89.07;;
15883;SDS011;8040;50.254;10.960;2023-04-27T04:40:25;397.05;;;104.72;;
15883;SDS011;8040;50.254;10.960;2023-04-27T04:42:51;382.50;;;94.77;;
15883;SDS011;8040;50.254;10.960;2023-04-27T04:45:17;383.97;;;93.07;;
15883;SDS011;8040;50.254;10.960;2023-04-27T04:47:42;382.47;;;90.57;;
15883;SDS011;8040;50.254;10.960;2023-04-27T04:50:07;382.67;;;92.17;;
15883;SDS011;8040;50.254;10.960;2023-04-27T04:52:37;381.35;;;89.22;;
15883;SDS011;8040;50.254;10.960;2023-04-27T04:55:05;380.30;;;91.65;;
15883;SDS011;8040;50.254;10.960;2023-04-27T04:57:31;388.40;;;96.13;;
15883;SDS011;8040;50.254;10.960;2023-04-27T04:59:56;388.03;;;95.97;;
15883;SDS011;8040;50.254;10.960;2023-04-27T05:02:22;387.17;;;92.45;;
15883;SDS011;8040;50.254;10.960;2023-04-27T05:04:47;383.48;;;93.43;;
15883;SDS011;8040;50.254;10.960;2023-04-27T05:07:13;383.87;;;92.50;;
15883;SDS011;8040;50.254;10.960;2023-04-27T05:09:38;382.50;;;89.17;;
15883;SDS011;8040;50.254;10.960;2023-04-27T05:12:04;394.17;;;103.67;;
15883;SDS011;8040;50.254;10.960;2023-04-27T05:14:30;388.13;;;98.50;;
15883;SDS011;8040;50.254;10.960;2023-04-27T05:16:56;388.00;;;100.03;;
15883;SDS011;8040;50.254;10.960;2023-04-27T05:19:23;397.70;;;105.73;;
15883;SDS011;8040;50.254;10.960;2023-04-27T05:21:49;383.70;;;92.75;;
15883;SDS011;8040;50.254;10.960;2023-04-27T05:24:15;388.65;;;97.53;;
15883;SDS011;8040;50.254;10.960;2023-04-27T05:26:41;386.80;;;95.03;;
15883;SDS011;8040;50.254;10.960;2023-04-27T05:29:07;394.67;;;103.53;;
15883;SDS011;8040;50.254;10.960;2023-04-27T05:31:33;390.10;;;98.28;;
15883;SDS011;8040;50.254;10.960;2023-04-27T05:33:58;395.73;;;100.10;;
15883;SDS011;8040;50.254;10.960;2023-04-27T05:36:23;391.77;;;98.50;;
15883;SDS011;8040;50.254;10.960;2023-04-27T05:38:52;393.93;;;100.27;;
15883;SDS011;8040;50.254;10.960;2023-04-27T05:41:18;392.67;;;102.75;;
15883;SDS011;8040;50.254;10.960;2023-04-27T05:43:44;394.67;;;100.10;;
15883;SDS011;8040;50.254;10.960;2023-04-27T05:46:12;400.57;;;101.83;;
15883;SDS011;8040;50.254;10.960;2023-04-27T05:48:39;396.75;;;105.30;;
15883;SDS011;8040;50.254;10.960;2023-04-27T05:51:05;405.87;;;108.23;;
15883;SDS011;8040;50.254;10.960;2023-04-27T05:53:32;397.00;;;105.82;;
15883;SDS011;8040;50.254;10.960;2023-04-27T05:55:58;392.25;;;99.90;;
15883;SDS011;8040;50.254;10.960;2023-04-27T05:58:25;398.58;;;109.03;;
15883;SDS011;8040;50.254;10.960;2023-04-27T06:03:54;403.50;;;111.13;;
15883;SDS011;8040;50.254;10.960;2023-04-27T06:06:20;393.85;;;101.35;;
15883;SDS011;8040;50.254;10.960;2023-04-27T06:08:45;391.77;;;108.88;;
15883;SDS011;8040;50.254;10.960;2023-04-27T06:11:12;390.52;;;106.65;;
15883;SDS011;8040;50.254;10.960;2023-04-27T06:13:38;393.67;;;107.30;;
15883;SDS011;8040;50.254;10.960;2023-04-27T06:16:03;409.83;;;120.93;;
15883;SDS011;8040;50.254;10.960;2023-04-27T06:18:30;392.52;;;111.68;;
15883;SDS011;8040;50.254;10.960;2023-04-27T06:20:59;395.77;;;112.63;;
15883;SDS011;8040;50.254;10.960;2023-04-27T06:23:26;391.75;;;110.68;;
15883;SDS011;8040;50.254;10.960;2023-04-27T06:25:52;395.43;;;112.20;;
15883;SDS011;8040;50.254;10.960;2023-04-27T06:28:17;401.93;;;120.87;;
15883;SDS011;8040;50.254;10.960;2023-04-27T06:30:42;399.70;;;113.90;;
15883;SDS011;8040;50.254;10.960;2023-04-27T06:33:10;393.10;;;111.40;;
15883;SDS011;8040;50.254;10.960;2023-04-27T06:35:40;397.88;;;114.78;;
15883;SDS011;8040;50.254;10.960;2023-04-27T06:38:05;391.80;;;108.82;;
15883;SDS011;8040;50.254;10.960;2023-04-27T06:40:31;397.00;;;114.73;;
15883;SDS011;8040;50.254;10.960;2023-04-27T06:42:56;394.63;;;107.72;;
15883;SDS011;8040;50.254;10.960;2023-04-27T06:45:22;396.67;;;108.88;;
15883;SDS011;8040;50.254;10.960;2023-04-27T06:47:47;392.98;;;104.97;;
15883;SDS011;8040;50.254;10.960;2023-04-27T06:50:12;396.73;;;109.68;;
15883;SDS011;8040;50.254;10.960;2023-04-27T06:52:39;407.10;;;121.25;;
15883;SDS011;8040;50.254;10.960;2023-04-27T06:55:05;388.60;;;103.27;;
15883;SDS011;8040;50.254;10.960;2023-04-27T06:57:43;387.70;;;101.38;;
15883;SDS011;8040;50.254;10.960;2023-04-27T07:00:14;395.27;;;106.40;;
15883;SDS011;8040;50.254;10.960;2023-04-27T07:02:46;394.30;;;110.68;;
15883;SDS011;8040;50.254;10.960;2023-04-27T07:05:21;393.83;;;107.88;;
15883;SDS011;8040;50.254;10.960;2023-04-27T07:07:47;399.08;;;111.25;;
15883;SDS011;8040;50.254;10.960;2023-04-27T07:10:12;389.98;;;104.80;;
15883;SDS011;8040;50.254;10.960;2023-04-27T07:12:38;410.92;;;119.25;;
15883;SDS011;8040;50.254;10.960;2023-04-27T07:15:04;397.07;;;108.07;;
15883;SDS011;8040;50.254;10.960;2023-04-27T07:17:31;387.77;;;100.43;;
15883;SDS011;8040;50.254;10.960;2023-04-27T07:19:56;411.48;;;126.20;;
15883;SDS011;8040;50.254;10.960;2023-04-27T07:22:22;398.80;;;108.70;;
15883;SDS011;8040;50.254;10.960;2023-04-27T07:24:48;398.47;;;110.43;;
15883;SDS011;8040;50.254;10.960;2023-04-27T07:27:13;388.97;;;106.20;;
15883;SDS011;8040;50.254;10.960;2023-04-27T07:29:39;395.17;;;110.90;;
15883;SDS011;8040;50.254;10.960;2023-04-27T07:32:11;387.63;;;103.03;;
15883;SDS011;8040;50.254;10.960;2023-04-27T07:34:39;390.67;;;110.43;;
15883;SDS011;8040;50.254;10.960;2023-04-27T07:37:05;408.03;;;115.87;;
15883;SDS011;8040;50.254;10.960;2023-04-27T07:39:32;398.08;;;112.82;;
15883;SDS011;8040;50.254;10.960;2023-04-27T07:41:57;395.37;;;109.93;;
15883;SDS011;8040;50.254;10.960;2023-04-27T07:44:23;401.27;;;118.70;;
15883;SDS011;8040;50.254;10.960;2023-04-27T07:46:48;393.20;;;108.88;;
15883;SDS011;8040;50.254;10.960;2023-04-27T07:49:21;392.20;;;105.78;;
15883;SDS011;8040;50.254;10.960;2023-04-27T07:51:46;395.20;;;110.53;;
15883;SDS011;8040;50.254;10.960;2023-04-27T07:54:11;388.70;;;103.30;;
15883;SDS011;8040;50.254;10.960;2023-04-27T07:56:41;393.23;;;112.30;;
15883;SDS011;8040;50.254;10.960;2023-04-27T07:59:09;395.27;;;117.78;;
15883;SDS011;8040;50.254;10.960;2023-04-27T08:01:35;390.70;;;105.30;;
15883;SDS011;8040;50.254;10.960;2023-04-27T08:04:01;391.77;;;111.75;;
15883;SDS011;8040;50.254;10.960;2023-04-27T08:06:28;399.00;;;108.85;;
15883;SDS011;8040;50.254;10.960;2023-04-27T08:08:53;404.02;;;118.22;;
15883;SDS011;8040;50.254;10.960;2023-04-27T08:11:24;400.15;;;119.38;;
15883;SDS011;8040;50.254;10.960;2023-04-27T08:13:50;398.02;;;115.63;;
15883;SDS011;8040;50.254;10.960;2023-04-27T08:16:16;395.03;;;113.93;;
15883;SDS011;8040;50.254;10.960;2023-04-27T08:18:42;392.17;;;111.27;;
15883;SDS011;8040;50.254;10.960;2023-04-27T08:23:58;392.00;;;113.38;;
15883;SDS011;8040;50.254;10.960;2023-04-27T08:26:24;396.42;;;112.43;;
15883;SDS011;8040;50.254;10.960;2023-04-27T08:28:49;394.05;;;113.05;;
15883;SDS011;8040;50.254;10.960;2023-04-27T08:31:15;394.90;;;117.15;;
15883;SDS011;8040;50.254;10.960;2023-04-27T08:33:41;393.40;;;112.97;;
15883;SDS011;8040;50.254;10.960;2023-04-27T08:36:08;395.13;;;116.00;;
15883;SDS011;8040;50.254;10.960;2023-04-27T08:38:35;400.30;;;118.65;;
15883;SDS011;8040;50.254;10.960;2023-04-27T08:41:01;396.58;;;117.38;;
15883;SDS011;8040;50.254;10.960;2023-04-27T08:43:31;394.92;;;114.10;;
15883;SDS011;8040;50.254;10.960;2023-04-27T08:45:57;397.02;;;114.68;;
15883;SDS011;8040;50.254;10.960;2023-04-27T08:48:22;399.67;;;119.17;;
15883;SDS011;8040;50.254;10.960;2023-04-27T08:50:49;415.47;;;128.43;;
15883;SDS011;8040;50.254;10.960;2023-04-27T08:53:19;402.60;;;123.88;;
15883;SDS011;8040;50.254;10.960;2023-04-27T08:55:45;398.30;;;115.07;;
15883;SDS011;8040;50.254;10.960;2023-04-27T08:58:11;410.23;;;127.28;;
15883;SDS011;8040;50.254;10.960;2023-04-27T09:00:37;394.73;;;114.82;;
15883;SDS011;8040;50.254;10.960;2023-04-27T09:03:05;402.25;;;125.07;;
15883;SDS011;8040;50.254;10.960;2023-04-27T09:05:32;391.85;;;115.40;;
15883;SDS011;8040;50.254;10.960;2023-04-27T09:08:09;391.08;;;112.05;;
15883;SDS011;8040;50.254;10.960;2023-04-27T09:10:45;410.52;;;120.45;;
15883;SDS011;8040;50.254;10.960;2023-04-27T09:13:11;403.48;;;125.20;;
15883;SDS011;8040;50.254;10.960;2023-04-27T09:15:41;400.90;;;119.67;;
15883;SDS011;8040;50.254;10.960;2023-04-27T09:18:17;407.83;;;123.60;;
15883;SDS011;8040;50.254;10.960;2023-04-27T09:20:45;400.58;;;120.22;;
15883;SDS011;8040;50.254;10.960;2023-04-27T09:23:28;401.95;;;118.88;;
15883;SDS011;8040;50.254;10.960;2023-04-27T09:25:56;404.35;;;125.80;;
15883;SDS011;8040;50.254;10.960;2023-04-27T09:28:23;404.40;;;122.93;;
15883;SDS011;8040;50.254;10.960;2023-04-27T09:30:59;417.30;;;135.05;;
15883;SDS011;8040;50.254;10.960;2023-04-27T09:33:27;399.10;;;118.43;;
15883;SDS011;8040;50.254;10.960;2023-04-27T09:35:57;407.80;;;131.30;;
15883;SDS011;8040;50.254;10.960;2023-04-27T09:38:24;401.80;;;125.47;;
15883;SDS011;8040;50.254;10.960;2023-04-27T09:40:50;402.33;;;123.60;;
15883;SDS011;8040;50.254;10.960;2023-04-27T09:43:16;419.02;;;141.63;;
15883;SDS011;8040;50.254;10.960;2023-04-27T09:45:42;398.92;;;120.55;;
15883;SDS011;8040;50.254;10.960;2023-04-27T09:48:08;400.08;;;124.25;;
15883;SDS011;8040;50.254;10.960;2023-04-27T09:50:41;398.90;;;123.32;;
15883;SDS011;8040;50.254;10.960;2023-04-27T09:53:09;404.20;;;126.57;;
15883;SDS011;8040;50.254;10.960;2023-04-27T09:55:58;394.45;;;117.15;;
15883;SDS011;8040;50.254;10.960;2023-04-27T09:58:44;396.92;;;119.15;;
15883;SDS011;8040;50.254;10.960;2023-04-27T10:01:42;417.23;;;141.50;;
15883;SDS011;8040;50.254;10.960;2023-04-27T10:07:10;396.23;;;121.82;;
15883;SDS011;8040;50.254;10.960;2023-04-27T10:09:47;419.08;;;144.35;;
15883;SDS011;8040;50.254;10.960;2023-04-27T10:12:19;401.10;;;124.78;;
15883;SDS011;8040;50.254;10.960;2023-04-27T10:14:52;413.48;;;138.25;;
15883;SDS011;8040;50.254;10.960;2023-04-27T10:17:18;402.77;;;129.18;;
15883;SDS011;8040;50.254;10.960;2023-04-27T10:19:53;397.40;;;121.72;;
15883;SDS011;8040;50.254;10.960;2023-04-27T10:22:47;418.30;;;143.23;;
15883;SDS011;8040;50.254;10.960;2023-04-27T10:28:00;413.98;;;131.25;;
15883;SDS011;8040;50.254;10.960;2023-04-27T10:30:30;402.23;;;121.20;;
15883;SDS011;8040;50.254;10.960;2023-04-27T10:32:58;396.42;;;123.70;;
15883;SDS011;8040;50.254;10.960;2023-04-27T10:36:10;408.05;;;131.00;;
15883;SDS011;8040;50.254;10.960;2023-04-27T10:38:25;409.92;;;134.10;;
15883;SDS011;8040;50.254;10.960;2023-04-27T10:40:58;410.48;;;134.40;;
15883;SDS011;8040;50.254;10.960;2023-04-27T10:43:30;415.50;;;134.73;;
15883;SDS011;8040;50.254;10.960;2023-04-27T10:46:10;402.67;;;129.73;;
15883;SDS011;8040;50.254;10.960;2023-04-27T10:48:37;404.93;;;131.80;;
15883;SDS011;8040;50.254;10.960;2023-04-27T10:51:03;399.17;;;126.78;;
15883;SDS011;8040;50.254;10.960;2023-04-27T10:53:32;409.23;;;138.60;;
15883;SDS011;8040;50.254;10.960;2023-04-27T10:58:44;403.70;;;131.52;;
15883;SDS011;8040;50.254;10.960;2023-04-27T11:01:09;406.93;;;136.23;;
15883;SDS011;8040;50.254;10.960;2023-04-27T11:03:34;416.03;;;142.20;;
15883;SDS011;8040;50.254;10.960;2023-04-27T11:06:03;409.73;;;144.23;;
15883;SDS011;8040;50.254;10.960;2023-04-27T11:08:29;408.23;;;144.82;;
15883;SDS011;8040;50.254;10.960;2023-04-27T11:10:56;414.27;;;146.35;;
15883;SDS011;8040;50.254;10.960;2023-04-27T11:13:23;416.40;;;148.50;;
15883;SDS011;8040;50.254;10.960;2023-04-27T11:15:50;417.83;;;154.30;;
15883;SDS011;8040;50.254;10.960;2023-04-27T11:18:38;406.85;;;145.10;;
15883;SDS011;8040;50.254;10.960;2023-04-27T11:21:08;410.98;;;146.18;;
15883;SDS011;8040;50.254;10.960;2023-04-27T11:23:35;406.63;;;139.57;;
15883;SDS011;8040;50.254;10.960;2023-04-27T11:28:44;416.63;;;151.70;;
15883;SDS011;8040;50.254;10.960;2023-04-27T11:31:21;402.20;;;140.23;;
15883;SDS011;8040;50.254;10.960;2023-04-27T11:33:47;409.95;;;149.60;;
15883;SDS011;8040;50.254;10.960;2023-04-27T11:36:20;400.40;;;137.80;;
15883;SDS011;8040;50.254;10.960;2023-04-27T11:38:47;407.33;;;137.27;;
15883;SDS011;8040;50.254;10.960;2023-04-27T11:41:13;410.65;;;140.27;;
15883;SDS011;8040;50.254;10.960;2023-04-27T11:43:42;416.03;;;140.63;;
15883;SDS011;8040;50.254;10.960;2023-04-27T11:46:13;408.95;;;139.23;;
15883;SDS011;8040;50.254;10.960;2023-04-27T11:48:38;402.37;;;135.73;;
15883;SDS011;8040;50.254;10.960;2023-04-27T11:51:05;409.23;;;136.77;;
15883;SDS011;8040;50.254;10.960;2023-04-27T11:53:32;402.50;;;134.15;;
15883;SDS011;8040;50.254;10.960;2023-04-27T11:55:59;404.17;;;132.57;;
15883;SDS011;8040;50.254;10.960;2023-04-27T11:58:27;405.20;;;133.45;;
15883;SDS011;8040;50.254;10.960;2023-04-27T12:00:56;400.10;;;133.20;;
15883;SDS011;8040;50.254;10.960;2023-04-27T12:03:21;408.38;;;135.82;;
15883;SDS011;8040;50.254;10.960;2023-04-27T12:05:48;408.60;;;133.88;;
15883;SDS011;8040;50.254;10.960;2023-04-27T12:08:17;407.48;;;138.40;;
15883;SDS011;8040;50.254;10.960;2023-04-27T12:10:43;400.23;;;127.90;;
15883;SDS011;8040;50.254;10.960;2023-04-27T12:13:09;406.10;;;134.33;;
15883;SDS011;8040;50.254;10.960;2023-04-27T12:15:35;401.37;;;127.00;;
15883;SDS011;8040;50.254;10.960;2023-04-27T12:18:01;397.67;;;126.17;;
15883;SDS011;8040;50.254;10.960;2023-04-27T12:20:26;394.47;;;119.00;;
15883;SDS011;8040;50.254;10.960;2023-04-27T12:25:36;400.40;;;127.23;;
15883;SDS011;8040;50.254;10.960;2023-04-27T12:28:02;401.35;;;131.60;;
15883;SDS011;8040;50.254;10.960;2023-04-27T12:30:28;402.67;;;129.53;;
15883;SDS011;8040;50.254;10.960;2023-04-27T12:32:53;399.97;;;129.57;;
15883;SDS011;8040;50.254;10.960;2023-04-27T12:35:18;402.20;;;133.80;;
15883;SDS011;8040;50.254;10.960;2023-04-27T12:37:44;405.27;;;127.17;;
15883;SDS011;8040;50.254;10.960;2023-04-27T12:40:09;411.03;;;136.10;;
15883;SDS011;8040;50.254;10.960;2023-04-27T12:42:38;415.33;;;146.37;;
15883;SDS011;8040;50.254;10.960;2023-04-27T12:45:04;415.17;;;139.80;;
15883;SDS011;8040;50.254;10.960;2023-04-27T12:47:31;403.07;;;130.50;;
15883;SDS011;8040;50.254;10.960;2023-04-27T12:50:01;405.67;;;131.10;;
15883;SDS011;8040;50.254;10.960;2023-04-27T12:52:27;409.27;;;136.30;;
15883;SDS011;8040;50.254;10.960;2023-04-27T12:57:28;432.63;;;132.50;;
15883;SDS011;8040;50.254;10.960;2023-04-27T12:59:53;416.30;;;130.75;;
15883;SDS011;8040;50.254;10.960;2023-04-27T13:02:20;403.63;;;129.48;;
15883;SDS011;8040;50.254;10.960;2023-04-27T13:04:47;425.80;;;153.93;;
15883;SDS011;8040;50.254;10.960;2023-04-27T13:07:22;417.20;;;147.05;;
15883;SDS011;8040;50.254;10.960;2023-04-27T13:09:53;471.80;;;211.23;;
15883;SDS011;8040;50.254;10.960;2023-04-27T13:12:22;462.77;;;204.18;;
15883;SDS011;8040;50.254;10.960;2023-04-27T13:14:48;414.30;;;143.07;;
15883;SDS011;8040;50.254;10.960;2023-04-27T13:17:59;445.60;;;172.68;;
15883;SDS011;8040;50.254;10.960;2023-04-27T13:23:06;399.43;;;121.97;;
15883;SDS011;8040;50.254;10.960;2023-04-27T13:25:31;410.02;;;138.43;;
15883;SDS011;8040;50.254;10.960;2023-04-27T13:27:57;434.67;;;170.40;;
15883;SDS011;8040;50.254;10.960;2023-04-27T13:30:24;436.10;;;164.13;;
15883;SDS011;8040;50.254;10.960;2023-04-27T13:32:55;451.08;;;183.50;;
15883;SDS011;8040;50.254;10.960;2023-04-27T13:39:04;432.70;;;167.23;;
15883;SDS011;8040;50.254;10.960;2023-04-27T13:45:19;413.02;;;141.73;;
15883;SDS011;8040;50.254;10.960;2023-04-27T13:47:45;423.15;;;158.52;;
15883;SDS011;8040;50.254;10.960;2023-04-27T13:50:11;407.73;;;134.53;;
15883;SDS011;8040;50.254;10.960;2023-04-27T13:52:37;407.73;;;132.05;;
15883;SDS011;8040;50.254;10.960;2023-04-27T13:55:03;408.85;;;138.57;;
15883;SDS011;8040;50.254;10.960;2023-04-27T13:57:33;463.80;;;217.85;;
15883;SDS011;8040;50.254;10.960;2023-04-27T13:59:58;402.75;;;129.63;;
15883;SDS011;8040;50.254;10.960;2023-04-27T14:02:25;475.67;;;221.40;;
15883;SDS011;8040;50.254;10.960;2023-04-27T14:04:51;485.05;;;235.13;;
15883;SDS011;8040;50.254;10.960;2023-04-27T14:07:17;418.63;;;148.52;;
15883;SDS011;8040;50.254;10.960;2023-04-27T14:09:43;416.15;;;145.50;;
15883;SDS011;8040;50.254;10.960;2023-04-27T14:12:09;412.55;;;148.10;;
15883;SDS011;8040;50.254;10.960;2023-04-27T14:14:34;402.70;;;138.32;;
15883;SDS011;8040;50.254;10.960;2023-04-27T14:19:30;437.58;;;155.73;;
15883;SDS011;8040;50.254;10.960;2023-04-27T14:21:56;426.75;;;148.27;;
15883;SDS011;8040;50.254;10.960;2023-04-27T14:24:21;482.17;;;176.38;;
15883;SDS011;8040;50.254;10.960;2023-04-27T14:26:47;549.63;;;218.73;;
15883;SDS011;8040;50.254;10.960;2023-04-27T14:29:15;443.53;;;156.37;;
15883;SDS011;8040;50.254;10.960;2023-04-27T14:31:41;441.73;;;159.07;;
15883;SDS011;8040;50.254;10.960;2023-04-27T14:34:06;436.40;;;152.80;;
15883;SDS011;8040;50.254;10.960;2023-04-27T14:36:32;506.47;;;183.77;;